createdAt,value
2016-10-27T00:00:11.483Z,65.50
2016-10-27T00:01:12.402Z,65.50
2016-10-27T00:02:12.748Z,65.46
2016-10-27T00:03:12.875Z,65.80
2016-10-27T00:04:14.790Z,66.53
2016-10-27T00:05:13.367Z,66.57
2016-10-27T00:06:12.888Z,65.78
2016-10-27T00:07:13.555Z,65.61
2016-10-27T00:08:15.319Z,65.56
2016-10-27T00:09:16.461Z,65.76
2016-10-27T00:10:12.446Z,66.57
2016-10-27T00:11:13.270Z,66.50
2016-10-27T00:12:18.617Z,66.22
2016-10-27T00:13:13.154Z,66.72
2016-10-27T00:14:12.861Z,66.88
2016-10-27T00:15:16.856Z,66.91
2016-10-27T00:16:13.051Z,66.98
2016-10-27T00:17:12.540Z,67.06
2016-10-27T00:18:12.705Z,67.06
2016-10-27T00:19:13.026Z,67.09
2016-10-27T00:20:13.899Z,67.12
2016-10-27T00:21:13.054Z,67.13
2016-10-27T00:22:13.738Z,67.17
2016-10-27T00:23:18.662Z,67.18
2016-10-27T00:24:16.199Z,67.13
2016-10-27T00:25:15.397Z,67.23
2016-10-27T00:26:12.662Z,67.24
2016-10-27T00:27:14.348Z,67.26
2016-10-27T00:28:12.617Z,67.27
2016-10-27T00:29:14.295Z,67.22
2016-10-27T00:30:12.436Z,67.28
2016-10-27T00:31:13.236Z,67.27
2016-10-27T00:32:12.365Z,67.30
2016-10-27T00:33:13.100Z,67.36
2016-10-27T00:34:12.163Z,67.36
2016-10-27T00:35:12.217Z,67.34
2016-10-27T00:36:14.357Z,67.41
2016-10-27T00:37:15.862Z,67.45
2016-10-27T00:38:13.642Z,67.26
2016-10-27T00:39:11.816Z,66.40
2016-10-27T00:40:12.967Z,66.23
2016-10-27T00:41:12.156Z,66.12
2016-10-27T00:42:12.172Z,66.08
2016-10-27T00:43:12.827Z,66.09
2016-10-27T00:44:12.798Z,66.06
2016-10-27T00:45:18.368Z,66.41
2016-10-27T00:46:14.337Z,67.16
2016-10-27T00:47:12.765Z,67.38
2016-10-27T00:48:13.422Z,67.55
2016-10-27T00:49:12.639Z,67.61
2016-10-27T00:50:10.785Z,67.66
2016-10-27T00:51:12.133Z,67.67
2016-10-27T00:52:14.608Z,67.71
2016-10-27T00:53:12.661Z,67.72
2016-10-27T00:54:13.339Z,67.65
2016-10-27T00:55:11.414Z,66.79
2016-10-27T00:56:19.342Z,66.58
2016-10-27T00:57:19.820Z,66.44
2016-10-27T00:58:15.546Z,67.37
2016-10-27T00:59:13.181Z,67.58
2016-10-27T01:00:14.154Z,67.71
2016-10-27T01:17:11.701Z,66.48
2016-10-27T01:18:12.841Z,66.45
2016-10-27T01:19:11.540Z,66.45
2016-10-27T01:20:12.843Z,67.31
2016-10-27T01:21:14.174Z,67.52
2016-10-27T01:22:13.735Z,67.74
2016-10-27T01:23:13.028Z,67.73
2016-10-27T01:24:16.092Z,67.73
2016-10-27T01:25:22.077Z,67.74
2016-10-27T01:26:12.364Z,67.77
2016-10-27T01:27:13.546Z,67.76
2016-10-27T01:28:10.142Z,67.80
2016-10-27T01:29:13.268Z,67.84
2016-10-27T01:30:12.648Z,67.83
2016-10-27T01:31:12.818Z,67.85
2016-10-27T01:32:13.609Z,67.78
2016-10-27T01:33:13.373Z,67.82
2016-10-27T01:34:11.148Z,67.84
2016-10-27T01:35:12.819Z,67.75
2016-10-27T01:36:15.406Z,67.78
2016-10-27T01:37:15.589Z,67.80
2016-10-27T01:38:13.441Z,67.82
2016-10-27T01:39:10.739Z,67.90
2016-10-27T01:40:13.151Z,67.80
2016-10-27T01:41:09.727Z,67.85
2016-10-27T01:42:12.825Z,67.83
2016-10-27T01:43:13.473Z,67.95
2016-10-27T01:44:14.213Z,67.83
2016-10-27T01:45:10.942Z,67.83
2016-10-27T01:46:13.057Z,67.81
2016-10-27T01:47:11.203Z,67.79
2016-10-27T01:48:11.415Z,67.87
2016-10-27T01:49:13.495Z,67.77
2016-10-27T01:50:13.272Z,67.71
2016-10-27T01:51:12.577Z,67.77
2016-10-27T01:52:16.098Z,67.77
2016-10-27T01:53:13.154Z,67.83
2016-10-27T01:54:13.115Z,67.75
2016-10-27T01:55:12.902Z,67.78
2016-10-27T01:56:14.099Z,67.74
2016-10-27T01:57:13.054Z,67.82
2016-10-27T01:58:13.066Z,67.81
2016-10-27T01:59:12.879Z,67.81
2016-10-27T02:00:12.936Z,67.78
2016-10-27T02:01:12.891Z,67.79
2016-10-27T02:02:13.624Z,67.87
2016-10-27T02:03:13.369Z,67.83
2016-10-27T02:04:14.006Z,67.81
2016-10-27T02:05:16.339Z,67.82
2016-10-27T02:06:12.399Z,67.84
2016-10-27T02:07:11.696Z,67.84
2016-10-27T02:08:13.213Z,67.83
2016-10-27T02:09:12.306Z,67.81
2016-10-27T02:10:12.693Z,67.80
2016-10-27T02:11:12.969Z,67.71
2016-10-27T02:12:12.242Z,67.83
2016-10-27T02:13:12.701Z,67.75
2016-10-27T02:14:12.797Z,67.75
2016-10-27T02:15:13.019Z,67.82
2016-10-27T02:16:12.239Z,67.79
2016-10-27T02:17:13.392Z,67.80
2016-10-27T02:18:16.185Z,67.81
2016-10-27T02:19:12.585Z,67.75
2016-10-27T02:20:12.931Z,67.78
2016-10-27T02:21:12.554Z,67.82
2016-10-27T02:22:13.492Z,67.81
2016-10-27T02:23:12.608Z,67.83
2016-10-27T02:24:12.841Z,67.87
2016-10-27T02:25:14.785Z,67.85
2016-10-27T02:26:13.799Z,67.79
2016-10-27T02:27:13.726Z,67.81
2016-10-27T02:28:12.681Z,67.84
2016-10-27T02:29:13.096Z,67.84
2016-10-27T02:30:11.253Z,67.80
2016-10-27T02:31:13.857Z,67.82
2016-10-27T02:32:14.588Z,67.69
2016-10-27T02:33:15.477Z,67.79
2016-10-27T02:34:11.656Z,67.85
2016-10-27T02:35:13.132Z,67.92
2016-10-27T02:36:10.459Z,67.85
2016-10-27T02:37:13.001Z,67.82
2016-10-27T02:38:12.033Z,67.85
2016-10-27T02:39:12.821Z,67.79
2016-10-27T02:40:13.877Z,67.78
2016-10-27T02:41:13.476Z,67.89
2016-10-27T02:42:12.863Z,67.81
2016-10-27T02:43:13.229Z,67.87
2016-10-27T02:44:12.376Z,67.84
2016-10-27T02:45:12.659Z,67.85
2016-10-27T02:46:17.633Z,67.87
2016-10-27T02:47:13.696Z,67.74
2016-10-27T02:48:14.492Z,67.82
2016-10-27T02:49:23.771Z,67.83
2016-10-27T02:50:13.098Z,67.78
2016-10-27T02:51:13.999Z,67.85
2016-10-27T02:52:12.831Z,67.81
2016-10-27T02:53:14.808Z,67.91
2016-10-27T02:54:13.531Z,67.84
2016-10-27T02:55:13.739Z,67.77
2016-10-27T02:56:12.901Z,67.83
2016-10-27T02:57:13.570Z,67.81
2016-10-27T02:58:13.403Z,67.77
2016-10-27T02:59:16.788Z,67.78
2016-10-27T03:00:11.738Z,67.73
2016-10-27T03:01:13.424Z,66.96
2016-10-27T03:02:13.252Z,66.64
2016-10-27T03:03:12.907Z,66.42
2016-10-27T03:04:13.282Z,66.66
2016-10-27T03:05:12.432Z,67.43
2016-10-27T03:06:13.528Z,67.63
2016-10-27T03:07:13.545Z,67.70
2016-10-27T03:08:13.225Z,67.74
2016-10-27T03:09:12.536Z,67.76
2016-10-27T03:10:13.534Z,67.79
2016-10-27T03:11:13.274Z,67.86
2016-10-27T03:12:17.985Z,67.84
2016-10-27T03:13:12.307Z,67.90
2016-10-27T03:14:14.286Z,67.85
2016-10-27T03:15:12.272Z,67.93
2016-10-27T03:16:12.573Z,67.91
2016-10-27T03:17:13.870Z,67.84
2016-10-27T03:18:13.390Z,67.98
2016-10-27T03:19:12.828Z,67.89
2016-10-27T03:20:13.570Z,67.81
2016-10-27T03:21:14.140Z,66.80
2016-10-27T03:22:13.187Z,66.63
2016-10-27T03:23:13.039Z,66.53
2016-10-27T03:24:13.749Z,66.43
2016-10-27T03:25:16.438Z,66.53
2016-10-27T03:26:13.161Z,66.35
2016-10-27T03:27:12.825Z,66.30
2016-10-27T03:28:13.839Z,66.37
2016-10-27T03:29:12.962Z,66.44
2016-10-27T03:30:12.828Z,66.44
2016-10-27T03:31:13.533Z,66.44
2016-10-27T03:32:12.949Z,66.34
2016-10-27T03:33:17.469Z,66.46
2016-10-27T03:34:13.217Z,67.46
2016-10-27T03:35:12.674Z,67.58
2016-10-27T03:36:13.356Z,67.73
2016-10-27T03:37:13.282Z,67.82
2016-10-27T03:38:18.956Z,67.86
2016-10-27T03:39:12.211Z,67.90
2016-10-27T03:40:13.062Z,67.96
2016-10-27T03:41:10.532Z,68.01
2016-10-27T03:42:13.231Z,68.00
2016-10-27T03:43:13.020Z,67.99
2016-10-27T03:44:12.162Z,68.01
2016-10-27T03:45:12.463Z,68.02
2016-10-27T03:46:13.488Z,68.03
2016-10-27T03:47:13.336Z,68.07
2016-10-27T03:48:13.227Z,68.06
2016-10-27T03:49:12.785Z,68.04
2016-10-27T03:50:19.081Z,68.07
2016-10-27T03:51:18.662Z,68.04
2016-10-27T03:52:13.014Z,68.12
2016-10-27T03:53:10.465Z,68.16
2016-10-27T03:54:12.818Z,68.10
2016-10-27T03:55:13.077Z,68.09
2016-10-27T03:56:13.225Z,68.05
2016-10-27T03:57:13.085Z,68.04
2016-10-27T03:58:13.781Z,68.09
2016-10-27T03:59:13.162Z,68.09
2016-10-27T04:00:12.181Z,68.05
2016-10-27T04:01:12.349Z,68.02
2016-10-27T04:02:18.743Z,68.05
2016-10-27T04:03:13.008Z,68.07
2016-10-27T04:04:15.052Z,68.10
2016-10-27T04:05:12.423Z,67.98
2016-10-27T04:06:12.917Z,68.05
2016-10-27T04:07:13.311Z,68.11
2016-10-27T04:08:13.058Z,68.04
2016-10-27T04:09:13.031Z,67.97
2016-10-27T04:10:12.279Z,67.06
2016-10-27T04:11:10.571Z,66.83
2016-10-27T04:12:14.434Z,66.75
2016-10-27T04:13:12.894Z,66.83
2016-10-27T04:14:13.217Z,67.71
2016-10-27T04:15:14.063Z,67.89
2016-10-27T04:16:12.354Z,67.94
2016-10-27T04:17:14.375Z,68.03
2016-10-27T04:18:13.454Z,68.06
2016-10-27T04:19:13.106Z,68.08
2016-10-27T04:20:12.873Z,68.04
2016-10-27T04:21:19.776Z,68.04
2016-10-27T04:22:12.992Z,68.00
2016-10-27T04:23:12.956Z,68.11
2016-10-27T04:24:12.737Z,68.17
2016-10-27T04:25:15.327Z,68.11
2016-10-27T04:26:14.940Z,68.13
2016-10-27T04:27:12.679Z,68.15
2016-10-27T04:28:12.286Z,68.10
2016-10-27T04:29:12.855Z,68.04
2016-10-27T04:30:15.519Z,68.11
2016-10-27T04:31:12.360Z,68.12
2016-10-27T04:32:16.496Z,68.15
2016-10-27T04:33:12.713Z,68.12
2016-10-27T04:34:13.487Z,68.11
2016-10-27T04:35:12.573Z,68.16
2016-10-27T04:36:13.673Z,68.07
2016-10-27T04:37:13.358Z,68.12
2016-10-27T04:38:12.698Z,68.15
2016-10-27T04:39:13.391Z,68.15
2016-10-27T04:40:14.074Z,68.12
2016-10-27T04:41:15.432Z,68.10
2016-10-27T04:42:14.449Z,68.17
2016-10-27T04:43:12.910Z,68.13
2016-10-27T04:44:13.373Z,68.14
2016-10-27T04:45:12.442Z,68.19
2016-10-27T04:46:14.551Z,68.17
2016-10-27T04:47:12.684Z,68.17
2016-10-27T04:48:13.031Z,68.11
2016-10-27T04:49:17.682Z,68.12
2016-10-27T04:50:13.062Z,68.09
2016-10-27T04:51:11.144Z,68.14
2016-10-27T04:52:13.059Z,68.09
2016-10-27T04:53:12.394Z,67.98
2016-10-27T04:54:15.842Z,67.84
2016-10-27T04:55:13.146Z,68.13
2016-10-27T04:56:12.258Z,67.98
2016-10-27T04:57:13.078Z,68.07
2016-10-27T04:58:13.073Z,68.16
2016-10-27T04:59:13.085Z,68.08
2016-10-27T05:00:10.816Z,68.10
2016-10-27T05:01:12.897Z,68.09
2016-10-27T05:02:13.444Z,68.04
2016-10-27T05:03:12.603Z,67.97
2016-10-27T05:04:13.292Z,68.10
2016-10-27T05:05:13.290Z,68.01
2016-10-27T05:06:13.114Z,67.99
2016-10-27T05:07:13.774Z,68.08
2016-10-27T05:08:12.521Z,68.02
2016-10-27T05:09:13.020Z,67.96
2016-10-27T05:10:11.126Z,68.02
2016-10-27T05:11:13.069Z,68.00
2016-10-27T05:12:10.868Z,68.02
2016-10-27T05:13:14.974Z,67.95
2016-10-27T05:14:12.728Z,68.05
2016-10-27T05:15:11.630Z,68.08
2016-10-27T05:16:13.192Z,67.97
2016-10-27T05:17:14.143Z,67.98
2016-10-27T05:18:15.486Z,68.00
2016-10-27T05:19:12.792Z,67.80
2016-10-27T05:20:13.888Z,67.92
2016-10-27T05:21:11.298Z,67.97
2016-10-27T05:22:12.676Z,66.93
2016-10-27T05:23:14.545Z,66.76
2016-10-27T05:24:11.590Z,66.65
2016-10-27T05:25:13.160Z,67.47
2016-10-27T05:26:13.919Z,67.75
2016-10-27T05:27:13.308Z,67.77
2016-10-27T05:28:10.293Z,67.90
2016-10-27T05:29:13.540Z,67.86
2016-10-27T05:30:13.729Z,67.86
2016-10-27T05:31:16.462Z,67.83
2016-10-27T05:32:13.745Z,67.90
2016-10-27T05:33:12.973Z,67.87
2016-10-27T05:34:12.500Z,67.80
2016-10-27T05:35:13.313Z,67.88
2016-10-27T05:36:12.631Z,67.87
2016-10-27T05:37:12.699Z,67.95
2016-10-27T05:38:13.856Z,67.92
2016-10-27T05:39:19.209Z,67.96
2016-10-27T05:40:12.391Z,67.95
2016-10-27T05:41:13.273Z,67.98
2016-10-27T05:42:11.307Z,68.02
2016-10-27T05:43:14.756Z,67.96
2016-10-27T05:44:16.350Z,68.00
2016-10-27T05:45:13.106Z,67.97
2016-10-27T05:46:11.223Z,68.01
2016-10-27T05:47:14.258Z,68.02
2016-10-27T05:48:14.237Z,68.02
2016-10-27T05:49:12.633Z,68.00
2016-10-27T05:50:11.122Z,67.99
2016-10-27T05:51:13.378Z,67.99
2016-10-27T05:52:13.560Z,67.96
2016-10-27T05:53:13.327Z,67.92
2016-10-27T05:54:12.771Z,67.94
2016-10-27T05:55:15.951Z,68.01
2016-10-27T05:56:10.341Z,67.99
2016-10-27T05:57:14.884Z,67.97
2016-10-27T05:58:12.000Z,68.00
2016-10-27T05:59:12.169Z,68.01
2016-10-27T06:00:12.731Z,67.98
2016-10-27T06:01:14.443Z,67.98
2016-10-27T06:02:15.547Z,68.02
2016-10-27T06:03:13.413Z,68.02
2016-10-27T06:04:13.382Z,68.04
2016-10-27T06:05:12.695Z,68.03
2016-10-27T06:06:10.102Z,67.99
2016-10-27T06:07:13.300Z,68.02
2016-10-27T06:08:21.904Z,68.05
2016-10-27T06:09:13.721Z,67.97
2016-10-27T06:10:13.544Z,68.03
2016-10-27T06:11:13.565Z,68.03
2016-10-27T06:12:12.897Z,68.02
2016-10-27T06:13:13.994Z,67.99
2016-10-27T06:14:12.195Z,68.03
2016-10-27T06:15:13.917Z,67.94
2016-10-27T06:16:11.291Z,68.03
2016-10-27T06:17:13.047Z,68.02
2016-10-27T06:18:13.041Z,68.07
2016-10-27T06:19:16.356Z,68.06
2016-10-27T06:20:15.947Z,68.13
2016-10-27T06:21:13.147Z,68.17
2016-10-27T06:22:13.041Z,67.99
2016-10-27T06:23:12.870Z,67.09
2016-10-27T06:24:18.755Z,66.88
2016-10-27T06:25:11.184Z,66.97
2016-10-27T06:26:09.888Z,67.83
2016-10-27T06:27:13.306Z,68.01
2016-10-27T06:28:13.236Z,68.08
2016-10-27T06:29:14.109Z,68.12
2016-10-27T06:30:12.622Z,68.12
2016-10-27T06:31:13.389Z,68.22
2016-10-27T06:32:16.578Z,68.18
2016-10-27T06:33:12.943Z,68.22
2016-10-27T06:34:14.190Z,68.30
2016-10-27T06:35:12.456Z,68.34
2016-10-27T06:36:13.604Z,68.25
2016-10-27T06:37:14.239Z,53.57
2016-10-27T06:38:14.475Z,51.99
2016-10-27T06:39:13.618Z,52.42
2016-10-27T06:40:12.869Z,52.41
2016-10-27T06:41:13.631Z,52.60
2016-10-27T06:42:13.495Z,52.98
2016-10-27T06:43:22.708Z,53.56
2016-10-27T06:44:13.495Z,54.17
2016-10-27T06:45:10.942Z,55.67
2016-10-27T06:46:18.102Z,55.30
2016-10-27T06:47:10.644Z,55.36
2016-10-27T06:48:13.126Z,56.02
2016-10-27T06:49:12.251Z,57.70
2016-10-27T06:50:13.521Z,57.82
2016-10-27T06:51:14.491Z,58.24
2016-10-27T06:52:13.447Z,58.60
2016-10-27T06:53:14.428Z,59.17
2016-10-27T06:54:15.267Z,59.44
2016-10-27T06:55:13.573Z,59.51
2016-10-27T06:56:11.913Z,59.60
2016-10-27T06:57:14.425Z,58.68
2016-10-27T06:58:12.700Z,58.62
2016-10-27T06:59:13.723Z,58.61
2016-10-27T07:00:19.306Z,59.57
2016-10-27T07:01:10.893Z,59.82
2016-10-27T07:02:12.455Z,60.14
2016-10-27T07:03:17.446Z,60.42
2016-10-27T07:04:13.167Z,60.56
2016-10-27T07:05:12.956Z,60.88
2016-10-27T07:06:13.632Z,60.87
2016-10-27T07:07:16.182Z,60.99
2016-10-27T07:08:13.065Z,61.07
2016-10-27T07:09:12.167Z,61.28
2016-10-27T07:10:12.893Z,61.35
2016-10-27T07:11:13.269Z,61.59
2016-10-27T07:12:12.339Z,61.87
2016-10-27T07:13:13.077Z,62.30
2016-10-27T07:14:12.269Z,62.22
2016-10-27T07:15:12.704Z,62.29
2016-10-27T07:16:12.915Z,62.38
2016-10-27T07:17:13.981Z,62.65
2016-10-27T07:18:15.616Z,62.72
2016-10-27T07:19:18.812Z,62.91
2016-10-27T07:20:15.713Z,62.97
2016-10-27T07:21:13.723Z,63.02
2016-10-27T07:22:12.918Z,63.11
2016-10-27T07:23:14.157Z,63.06
2016-10-27T07:24:13.264Z,63.23
2016-10-27T07:25:12.415Z,63.23
2016-10-27T07:26:12.688Z,63.36
2016-10-27T07:27:12.798Z,63.35
2016-10-27T07:28:18.936Z,63.29
2016-10-27T07:29:15.781Z,63.44
2016-10-27T07:30:13.916Z,63.39
2016-10-27T07:31:13.411Z,63.53
2016-10-27T07:32:14.257Z,63.50
2016-10-27T07:33:13.139Z,63.50
2016-10-27T07:34:12.829Z,63.56
2016-10-27T07:35:13.339Z,63.57
2016-10-27T07:36:12.936Z,63.55
2016-10-27T07:37:13.126Z,63.60
2016-10-27T07:38:12.452Z,63.61
2016-10-27T07:39:13.681Z,63.65
2016-10-27T07:40:15.585Z,63.69
2016-10-27T07:41:12.844Z,63.73
2016-10-27T07:42:17.545Z,63.69
2016-10-27T07:43:13.197Z,63.18
2016-10-27T07:44:18.001Z,61.39
2016-10-27T07:45:12.882Z,61.24
2016-10-27T07:46:13.212Z,61.10
2016-10-27T07:47:13.019Z,61.93
2016-10-27T07:48:12.348Z,61.80
2016-10-27T07:49:14.121Z,61.20
2016-10-27T07:50:12.580Z,60.91
2016-10-27T07:51:13.322Z,62.49
2016-10-27T07:52:13.539Z,60.80
2016-10-27T07:53:16.258Z,61.04
2016-10-27T07:54:11.142Z,61.20
2016-10-27T07:55:19.977Z,61.29
2016-10-27T07:56:12.448Z,61.13
2016-10-27T07:57:13.289Z,59.76
2016-10-27T07:58:13.709Z,57.77
2016-10-27T07:59:11.276Z,57.91
2016-10-27T08:00:12.877Z,58.69
2016-10-27T08:01:13.649Z,57.75
2016-10-27T08:02:12.150Z,56.40
2016-10-27T08:03:12.139Z,55.45
2016-10-27T08:04:15.968Z,56.99
2016-10-27T08:05:12.902Z,58.16
2016-10-27T08:06:11.843Z,59.79
2016-10-27T08:07:12.955Z,60.37
2016-10-27T08:08:11.172Z,61.18
2016-10-27T08:09:19.809Z,60.61
2016-10-27T08:10:13.736Z,61.67
2016-10-27T08:11:13.995Z,61.79
2016-10-27T08:12:12.797Z,61.54
2016-10-27T08:13:13.183Z,61.70
2016-10-27T08:14:13.041Z,61.76
2016-10-27T08:15:15.366Z,60.46
2016-10-27T08:16:13.346Z,59.29
2016-10-27T08:17:13.483Z,59.53
2016-10-27T08:18:12.844Z,60.55
2016-10-27T08:19:13.825Z,60.95
2016-10-27T08:20:13.064Z,61.09
2016-10-27T08:21:10.528Z,61.10
2016-10-27T08:22:10.480Z,61.06
2016-10-27T08:23:13.249Z,61.00
2016-10-27T08:24:13.469Z,60.87
2016-10-27T08:25:13.146Z,60.86
2016-10-27T08:26:15.803Z,60.76
2016-10-27T08:27:13.621Z,60.74
2016-10-27T08:28:11.799Z,60.58
2016-10-27T08:29:12.547Z,60.56
2016-10-27T08:30:13.152Z,60.51
2016-10-27T08:31:09.502Z,60.52
2016-10-27T08:32:14.751Z,60.46
2016-10-27T08:33:13.034Z,60.46
2016-10-27T08:34:13.017Z,60.25
2016-10-27T08:35:14.219Z,59.46
2016-10-27T08:36:13.059Z,60.22
2016-10-27T08:37:15.500Z,60.31
2016-10-27T08:38:13.683Z,60.36
2016-10-27T08:39:14.450Z,60.35
2016-10-27T08:40:14.710Z,60.45
2016-10-27T08:41:12.928Z,60.45
2016-10-27T08:42:12.383Z,60.41
2016-10-27T08:43:14.264Z,60.41
2016-10-27T08:44:14.415Z,60.44
2016-10-27T08:45:13.106Z,60.46
2016-10-27T08:46:13.036Z,60.45
2016-10-27T08:47:12.983Z,60.52
2016-10-27T08:48:16.174Z,60.53
2016-10-27T08:49:13.752Z,60.54
2016-10-27T08:50:13.572Z,60.39
2016-10-27T08:51:11.989Z,59.65
2016-10-27T08:52:12.689Z,59.46
2016-10-27T08:53:13.055Z,60.30
2016-10-27T08:54:12.262Z,60.43
2016-10-27T08:55:19.055Z,60.53
2016-10-27T08:56:12.877Z,60.59
2016-10-27T08:57:11.913Z,60.56
2016-10-27T08:58:13.027Z,60.63
2016-10-27T08:59:15.956Z,60.68
2016-10-27T09:00:12.695Z,60.69
2016-10-27T09:01:12.988Z,60.75
2016-10-27T09:02:10.616Z,60.77
2016-10-27T09:03:13.817Z,60.78
2016-10-27T09:04:13.767Z,60.81
2016-10-27T09:05:12.908Z,60.84
2016-10-27T09:06:17.934Z,60.86
2016-10-27T09:07:13.715Z,60.87
2016-10-27T09:08:14.941Z,60.89
2016-10-27T09:09:12.778Z,60.90
2016-10-27T09:10:16.945Z,60.93
2016-10-27T09:11:12.107Z,60.96
2016-10-27T09:12:12.514Z,60.97
2016-10-27T09:13:18.515Z,60.99
2016-10-27T09:14:12.842Z,61.04
2016-10-27T09:15:13.832Z,61.04
2016-10-27T09:16:13.500Z,61.05
2016-10-27T09:17:11.003Z,61.10
2016-10-27T09:18:11.300Z,60.18
2016-10-27T09:19:14.304Z,59.96
2016-10-27T09:20:12.525Z,59.89
2016-10-27T09:21:14.420Z,59.84
2016-10-27T09:22:13.160Z,59.90
2016-10-27T09:23:12.343Z,59.83
2016-10-27T09:24:12.925Z,59.81
2016-10-27T09:25:12.078Z,60.02
2016-10-27T09:26:12.323Z,60.77
2016-10-27T09:27:12.908Z,60.97
2016-10-27T09:28:13.922Z,61.10
2016-10-27T09:29:14.349Z,61.16
2016-10-27T09:30:14.914Z,61.19
2016-10-27T09:31:12.082Z,61.23
2016-10-27T09:32:13.081Z,61.26
2016-10-27T09:33:10.203Z,61.30
2016-10-27T09:34:13.154Z,61.35
2016-10-27T09:35:13.416Z,61.35
2016-10-27T09:36:18.681Z,61.39
2016-10-27T09:37:12.922Z,61.39
2016-10-27T09:38:18.902Z,61.40
2016-10-27T09:39:12.737Z,61.43
2016-10-27T09:40:13.925Z,61.45
2016-10-27T09:41:15.537Z,61.47
2016-10-27T09:42:13.563Z,61.50
2016-10-27T09:43:12.891Z,61.50
2016-10-27T09:44:18.567Z,61.51
2016-10-27T09:45:13.540Z,61.54
2016-10-27T09:46:13.162Z,61.55
2016-10-27T09:47:12.727Z,61.56
2016-10-27T09:48:13.042Z,61.58
2016-10-27T09:49:12.448Z,61.59
2016-10-27T09:50:12.689Z,61.60
2016-10-27T09:51:11.268Z,61.62
2016-10-27T09:52:15.742Z,61.62
2016-10-27T09:53:12.880Z,61.63
2016-10-27T09:54:13.095Z,61.63
2016-10-27T09:55:10.453Z,61.66
2016-10-27T09:56:13.402Z,61.66
2016-10-27T09:57:13.534Z,61.69
2016-10-27T09:58:11.530Z,61.69
2016-10-27T09:59:14.963Z,61.70
2016-10-27T10:00:13.694Z,61.70
2016-10-27T10:01:14.005Z,61.72
2016-10-27T10:02:16.284Z,61.75
2016-10-27T10:03:16.520Z,61.76
2016-10-27T10:04:10.970Z,61.78
2016-10-27T10:05:13.212Z,61.79
2016-10-27T10:06:12.668Z,61.80
2016-10-27T10:07:13.127Z,61.81
2016-10-27T10:08:13.143Z,61.82
2016-10-27T10:09:18.382Z,61.83
2016-10-27T10:10:13.155Z,61.84
2016-10-27T10:11:14.913Z,61.85
2016-10-27T10:12:13.914Z,61.87
2016-10-27T10:13:14.925Z,61.88
2016-10-27T10:14:15.459Z,61.90
2016-10-27T10:15:13.395Z,61.90
2016-10-27T10:16:13.036Z,61.91
2016-10-27T10:17:12.838Z,61.91
2016-10-27T10:18:14.765Z,61.92
2016-10-27T10:19:14.042Z,61.93
2016-10-27T10:20:13.241Z,61.93
2016-10-27T10:21:12.427Z,61.94
2016-10-27T10:22:13.167Z,61.95
2016-10-27T10:23:14.019Z,61.89
2016-10-27T10:24:12.326Z,61.01
2016-10-27T10:25:15.034Z,61.16
2016-10-27T10:26:14.237Z,61.68
2016-10-27T10:27:12.303Z,61.80
2016-10-27T10:28:12.640Z,61.88
2016-10-27T10:29:14.425Z,61.90
2016-10-27T10:30:12.615Z,61.92
2016-10-27T10:31:13.643Z,61.94
2016-10-27T10:32:13.048Z,61.96
2016-10-27T10:33:15.019Z,61.97
2016-10-27T10:34:21.805Z,61.97
2016-10-27T10:35:13.619Z,61.97
2016-10-27T10:36:14.707Z,61.98
2016-10-27T10:37:13.600Z,61.98
2016-10-27T10:38:13.495Z,61.98
2016-10-27T10:39:14.332Z,61.99
2016-10-27T10:40:12.675Z,62.00
2016-10-27T10:41:13.307Z,61.99
2016-10-27T10:42:13.437Z,62.00
2016-10-27T10:43:12.774Z,62.01
2016-10-27T10:44:13.066Z,62.01
2016-10-27T10:45:15.883Z,62.01
2016-10-27T10:46:13.125Z,62.01
2016-10-27T10:47:13.078Z,62.03
2016-10-27T10:48:12.223Z,62.04
2016-10-27T10:49:11.211Z,62.05
2016-10-27T10:50:20.086Z,62.05
2016-10-27T10:51:14.164Z,62.04
2016-10-27T10:52:13.280Z,62.04
2016-10-27T10:53:13.118Z,61.91
2016-10-27T10:54:14.908Z,61.27
2016-10-27T10:55:13.894Z,61.86
2016-10-27T10:56:12.302Z,61.95
2016-10-27T10:57:12.783Z,61.04
2016-10-27T10:58:13.704Z,61.18
2016-10-27T10:59:11.696Z,61.75
2016-10-27T11:00:13.651Z,61.91
2016-10-27T11:01:13.051Z,61.98
2016-10-27T11:02:13.243Z,62.03
2016-10-27T11:03:12.608Z,62.06
2016-10-27T11:04:13.592Z,62.08
2016-10-27T11:05:16.096Z,61.88
2016-10-27T11:06:12.913Z,61.15
2016-10-27T11:07:14.027Z,60.94
2016-10-27T11:08:12.601Z,60.85
2016-10-27T11:09:13.521Z,60.84
2016-10-27T11:10:11.095Z,61.71
2016-10-27T11:11:14.048Z,60.94
2016-10-27T11:12:13.287Z,60.91
2016-10-27T11:13:14.161Z,61.74
2016-10-27T11:14:13.257Z,61.92
2016-10-27T11:15:11.408Z,62.02
2016-10-27T11:16:16.683Z,62.07
2016-10-27T11:17:13.436Z,62.09
2016-10-27T11:18:14.462Z,62.12
2016-10-27T11:19:13.307Z,62.13
2016-10-27T11:20:14.342Z,62.16
2016-10-27T11:21:12.703Z,62.18
2016-10-27T11:22:13.816Z,62.21
2016-10-27T11:23:11.775Z,62.22
2016-10-27T11:24:16.572Z,61.29
2016-10-27T11:25:15.806Z,61.06
2016-10-27T11:26:13.690Z,60.98
2016-10-27T11:27:13.745Z,60.94
2016-10-27T11:28:14.845Z,60.90
2016-10-27T11:29:13.612Z,60.88
2016-10-27T11:30:13.478Z,60.90
2016-10-27T11:31:14.389Z,61.14
2016-10-27T11:32:13.402Z,61.82
2016-10-27T11:33:13.238Z,62.00
2016-10-27T11:34:13.316Z,62.09
2016-10-27T11:35:11.477Z,62.15
2016-10-27T11:36:17.942Z,62.18
2016-10-27T11:37:12.968Z,62.20
2016-10-27T11:38:11.123Z,62.23
2016-10-27T11:39:12.408Z,61.26
2016-10-27T11:40:13.034Z,61.10
2016-10-27T11:41:12.097Z,61.01
2016-10-27T11:42:12.643Z,60.97
2016-10-27T11:43:13.326Z,60.95
2016-10-27T11:44:13.329Z,60.93
2016-10-27T11:45:13.150Z,60.91
2016-10-27T11:46:13.031Z,60.91
2016-10-27T11:47:15.391Z,60.90
2016-10-27T11:48:12.141Z,61.10
2016-10-27T11:49:11.494Z,61.68
2016-10-27T11:50:13.531Z,61.06
2016-10-27T11:51:13.502Z,60.97
2016-10-27T11:52:15.475Z,60.92
2016-10-27T11:53:12.928Z,60.91
2016-10-27T11:54:12.677Z,60.90
2016-10-27T11:55:13.377Z,61.21
2016-10-27T11:56:16.420Z,61.88
2016-10-27T11:57:13.362Z,62.05
2016-10-27T11:58:11.514Z,62.18
2016-10-27T11:59:13.426Z,62.08
2016-10-27T12:00:13.638Z,61.34
2016-10-27T12:01:13.658Z,61.14
2016-10-27T12:02:13.166Z,61.06
2016-10-27T12:03:15.183Z,61.02
2016-10-27T12:04:12.652Z,61.26
2016-10-27T12:05:13.611Z,61.94
2016-10-27T12:06:12.685Z,62.11
2016-10-27T12:07:16.844Z,62.21
2016-10-27T12:08:18.916Z,62.23
2016-10-27T12:09:13.394Z,62.26
2016-10-27T12:10:12.624Z,62.29
2016-10-27T12:11:13.649Z,62.31
2016-10-27T12:12:12.819Z,62.32
2016-10-27T12:13:13.413Z,62.34
2016-10-27T12:14:12.781Z,62.35
2016-10-27T12:15:19.187Z,62.35
2016-10-27T12:16:16.544Z,62.37
2016-10-27T12:17:13.748Z,62.37
2016-10-27T12:18:13.535Z,62.38
2016-10-27T12:19:13.692Z,62.40
2016-10-27T12:20:12.780Z,62.40
2016-10-27T12:21:12.857Z,62.41
2016-10-27T12:22:13.507Z,62.41
2016-10-27T12:23:13.579Z,62.42
2016-10-27T12:24:14.375Z,62.42
2016-10-27T12:25:12.238Z,62.44
2016-10-27T12:26:12.812Z,62.43
2016-10-27T12:27:17.101Z,62.45
2016-10-27T12:28:12.481Z,62.44
2016-10-27T12:29:13.081Z,62.43
2016-10-27T12:30:12.432Z,62.44
2016-10-27T12:31:13.415Z,62.44
2016-10-27T12:32:12.886Z,62.44
2016-10-27T12:33:15.149Z,62.44
2016-10-27T12:34:12.678Z,62.45
2016-10-27T12:35:11.771Z,62.46
2016-10-27T12:36:17.263Z,61.47
2016-10-27T12:37:12.884Z,61.29
2016-10-27T12:38:13.275Z,61.52
2016-10-27T12:39:13.027Z,62.07
2016-10-27T12:40:12.870Z,62.24
2016-10-27T12:41:13.354Z,62.31
2016-10-27T12:42:12.653Z,62.34
2016-10-27T12:43:12.993Z,62.36
2016-10-27T12:44:12.206Z,62.37
2016-10-27T12:45:15.320Z,62.39
2016-10-27T12:46:13.499Z,62.24
2016-10-27T12:47:13.224Z,61.52
2016-10-27T12:48:13.195Z,62.18
2016-10-27T12:49:13.081Z,62.29
2016-10-27T12:50:13.222Z,62.32
2016-10-27T12:51:12.274Z,62.32
2016-10-27T12:52:12.691Z,62.34
2016-10-27T12:53:12.841Z,62.35
2016-10-27T12:54:13.084Z,62.36
2016-10-27T12:55:12.976Z,62.36
2016-10-27T12:56:15.519Z,62.36
2016-10-27T12:57:13.374Z,62.36
2016-10-27T12:58:13.298Z,62.34
2016-10-27T12:59:12.605Z,62.35
2016-10-27T13:00:13.018Z,62.36
2016-10-27T13:01:18.686Z,62.36
2016-10-27T13:02:13.242Z,62.35
2016-10-27T13:03:15.034Z,62.35
2016-10-27T13:04:12.698Z,62.36
2016-10-27T13:05:17.337Z,62.36
2016-10-27T13:06:13.387Z,62.36
2016-10-27T13:07:13.070Z,62.35
2016-10-27T13:08:12.282Z,62.37